Terminal Aerodrome Forecast
Issued by NWS Cleveland, OH

Home | Current Version | Previous Version | Graphics & Text | Print | Product List | Glossary On
Versions: 1 2 3 4 5 6 7 8 9 10 11 12 13 14 15 16 17 18 19 20 21
426
FTUS41 KCLE 212238 AAB
TAFERI
TAF AMD
KERI 212238Z 2123/2218 22008KT P6SM -RA OVC080
     FM220000 20008KT P6SM OVC060
     FM220200 18006KT 6SM BR VCSH OVC025
     FM220500 18005KT 5SM BR BKN007 OVC050
     FM220800 15004KT 3SM BR OVC008
     FM221400 19007KT 6SM BR OVC015=

USA.gov is the U.S. government's official web portal to all federal, state and local government web resources and services.